Impacts TAF Board
For situational awareness. Not to be used for flight planning purposes.
IDs:

KDCA - Washington/National, VA, US

Issued at 2031 UTC 20 Jun 2019
Updated at 2202 UTC 20 Jun 2019
Potential Impact None Slight Moderate High
Time<<21/11Z 21/12Z 21/13Z 21/14Z 21/15Z 21/16Z 21/17Z 21/18Z 21/19Z 21/20Z 21/21Z 21/22Z 21/23Z>>
Type PRVL PRVL PRVL PRVL PRVL PRVL PRVL PRVL PRVL PRVL PRVL PRVL PRVL
VIS >6 >6 >6 >6 >6 >6 >6 >6 >6 >6 >6 >6 >6
CIG -- -- -- -- -- -- -- -- -- -- -- -- --
Cover SCT SCT SCT SCT SCT SCT SCT SCT SCT SCT SCT SCT SCT
FltCat VFR VFR VFR VFR VFR VFR VFR VFR VFR VFR VFR VFR VFR
WX -- -- -- -- -- -- -- -- -- -- -- -- --
WDir 310 310 310 310 310 310 310 310 310 310 310 310 310
WSpd 12 12 12 12 12 12 12 12 12 12 12 12 12
WGst 23 23 23 23 23 23 23 23 23 23 23 23 23
Raw TAF
KDCA 202031Z 2021/2124 27014G21KT P6SM VCSH SCT060
  FM210000 25009KT P6SM SCT035 OVC120
  FM210800 31012G23KT P6SM FEW030 SCT100


METAR Board
Radar Display
Forecast Discussion
For situational awareness. Not to be used for flight planning purposes.